createdAt,value
2023-07-26T00:01:43.385Z,1.60
2023-07-26T00:04:45.941Z,1.50
2023-07-26T00:07:48.152Z,1.88
2023-07-26T00:10:50.468Z,1.60
2023-07-26T00:13:52.736Z,1.60
2023-07-26T00:16:54.943Z,1.30
2023-07-26T00:19:57.217Z,1.77
2023-07-26T00:22:59.494Z,1.98
2023-07-26T00:26:02.335Z,1.83
2023-07-26T00:29:04.673Z,1.70
2023-07-26T00:32:07.407Z,1.33
2023-07-26T00:35:09.865Z,1.40
2023-07-26T00:38:12.216Z,1.60
2023-07-26T00:41:14.675Z,1.80
2023-07-26T00:44:16.900Z,1.50
2023-07-26T00:47:19.121Z,1.60
2023-07-26T00:50:21.456Z,1.40
2023-07-26T00:53:23.975Z,1.50
2023-07-26T00:56:26.490Z,1.52
2023-07-26T00:59:28.734Z,1.40
2023-07-26T01:02:31.979Z,1.80
2023-07-26T01:05:40.786Z,1.50
2023-07-26T01:09:03.473Z,1.83
2023-07-26T01:12:08.228Z,1.75
2023-07-26T01:15:13.730Z,1.73
2023-07-26T01:18:17.234Z,1.60
2023-07-26T01:21:19.477Z,2.17
2023-07-26T01:24:21.781Z,1.70
2023-07-26T01:27:24.860Z,1.90
2023-07-26T01:30:31.237Z,1.83
2023-07-26T01:33:35.508Z,1.40
2023-07-26T01:36:38.174Z,1.67
2023-07-26T01:39:40.506Z,1.67
2023-07-26T01:42:42.866Z,1.95
2023-07-26T01:45:45.106Z,1.77
2023-07-26T01:48:47.393Z,2.07
2023-07-26T01:51:49.615Z,2.00
2023-07-26T01:54:51.803Z,2.00
2023-07-26T01:57:54.032Z,1.92
2023-07-26T02:00:56.484Z,1.70
2023-07-26T02:03:58.897Z,1.80
2023-07-26T02:07:01.219Z,1.80
2023-07-26T02:10:03.998Z,1.70
2023-07-26T02:13:06.453Z,2.10
2023-07-26T02:16:08.939Z,1.83
2023-07-26T02:19:11.210Z,2.23
2023-07-26T02:22:13.866Z,2.00
2023-07-26T02:25:16.453Z,1.80
2023-07-26T02:28:18.668Z,2.00
2023-07-26T02:31:20.944Z,1.90
2023-07-26T02:34:23.189Z,1.83
2023-07-26T02:37:25.433Z,2.05
2023-07-26T02:40:27.711Z,2.05
2023-07-26T02:43:39.676Z,2.25
2023-07-26T02:46:43.138Z,2.20
2023-07-26T02:49:45.436Z,1.90
2023-07-26T02:52:47.738Z,2.20
2023-07-26T02:55:50.424Z,2.28
2023-07-26T02:58:52.690Z,2.13
2023-07-26T03:01:54.996Z,2.50
2023-07-26T03:04:57.285Z,1.97
2023-07-26T03:07:59.511Z,2.30
2023-07-26T03:11:01.746Z,2.45
2023-07-26T03:14:04.010Z,2.35
2023-07-26T03:20:14.510Z,2.40
2023-07-26T03:23:16.908Z,2.85
2023-07-26T03:26:19.425Z,3.42
2023-07-26T03:29:22.739Z,2.85
2023-07-26T03:32:25.005Z,2.63
2023-07-26T03:35:28.548Z,2.70
2023-07-26T03:38:32.641Z,2.85
2023-07-26T03:41:34.955Z,2.70
2023-07-26T03:44:37.986Z,2.70
2023-07-26T03:47:41.011Z,2.67
2023-07-26T03:50:43.335Z,2.37
2023-07-26T03:53:45.642Z,2.90
2023-07-26T03:56:47.927Z,2.45
2023-07-26T03:59:50.178Z,2.33
2023-07-26T04:02:56.228Z,2.40
2023-07-26T04:05:58.532Z,3.60
2023-07-26T04:09:00.756Z,3.75
2023-07-26T04:12:03.270Z,5.30
2023-07-26T04:15:05.945Z,4.50
2023-07-26T04:18:08.203Z,4.57
2023-07-26T04:21:17.912Z,4.47
2023-07-26T04:24:20.180Z,4.45
2023-07-26T04:27:22.410Z,4.40
2023-07-26T04:30:24.680Z,4.13
2023-07-26T04:33:26.945Z,3.83
2023-07-26T04:36:29.260Z,3.40
2023-07-26T04:39:31.603Z,3.25
2023-07-26T04:42:33.873Z,3.20
2023-07-26T04:45:36.088Z,3.15
2023-07-26T04:48:38.318Z,3.00
2023-07-26T04:51:40.522Z,2.90
2023-07-26T04:54:42.727Z,3.22
2023-07-26T04:57:44.892Z,2.80
2023-07-26T05:00:47.251Z,2.83
2023-07-26T05:03:49.548Z,2.60
2023-07-26T05:06:51.806Z,2.27
2023-07-26T05:09:54.346Z,2.42
2023-07-26T05:12:57.383Z,2.20
2023-07-26T05:15:59.720Z,2.60
2023-07-26T05:19:01.966Z,2.17
2023-07-26T05:22:04.384Z,2.10
2023-07-26T05:25:07.370Z,2.10
2023-07-26T05:28:09.648Z,2.20
2023-07-26T05:31:11.971Z,2.05
2023-07-26T05:34:14.254Z,1.77
2023-07-26T05:37:16.460Z,1.67
2023-07-26T05:40:18.735Z,1.70
2023-07-26T05:43:21.030Z,1.80
2023-07-26T05:46:23.303Z,1.45
2023-07-26T05:49:25.618Z,1.80
2023-07-26T05:52:27.812Z,1.70
2023-07-26T05:55:30.598Z,1.40
2023-07-26T05:58:33.059Z,1.35
2023-07-26T06:01:35.639Z,1.50
2023-07-26T06:04:38.174Z,1.57
2023-07-26T06:07:40.531Z,1.63
2023-07-26T06:10:42.843Z,1.40
2023-07-26T06:13:45.212Z,1.48
2023-07-26T06:16:47.488Z,1.50
2023-07-26T06:19:49.766Z,1.47
2023-07-26T06:22:52.092Z,1.47
2023-07-26T06:25:54.402Z,1.73
2023-07-26T06:28:57.354Z,1.27
2023-07-26T06:32:00.455Z,1.45
2023-07-26T06:35:02.829Z,1.37
2023-07-26T06:38:05.217Z,1.50
2023-07-26T06:41:08.168Z,1.60
2023-07-26T06:44:10.960Z,1.27
2023-07-26T06:47:13.425Z,1.40
2023-07-26T06:50:15.914Z,1.40
2023-07-26T06:53:18.112Z,1.30
2023-07-26T06:56:22.178Z,1.50
2023-07-26T06:59:25.651Z,1.30
2023-07-26T07:02:27.951Z,1.40
2023-07-26T07:05:31.878Z,1.60
2023-07-26T07:08:34.061Z,1.30
2023-07-26T07:11:37.194Z,1.52
2023-07-26T07:14:40.393Z,1.70
2023-07-26T07:17:43.627Z,1.50
2023-07-26T07:20:46.892Z,1.60
2023-07-26T07:23:49.877Z,1.47
2023-07-26T07:26:53.016Z,1.70
2023-07-26T07:29:56.580Z,1.60
2023-07-26T07:32:59.105Z,1.77
2023-07-26T07:36:03.478Z,2.00
2023-07-26T07:39:09.264Z,1.77
2023-07-26T07:42:11.504Z,1.50
2023-07-26T07:45:13.835Z,1.45
2023-07-26T07:48:16.307Z,1.50
2023-07-26T07:51:18.514Z,1.47
2023-07-26T07:54:20.787Z,2.50
2023-07-26T07:57:23.244Z,1.55
2023-07-26T08:00:25.533Z,1.40
2023-07-26T08:03:28.224Z,1.77
2023-07-26T08:06:30.786Z,1.40
2023-07-26T08:09:33.320Z,1.40
2023-07-26T08:12:36.749Z,1.45
2023-07-26T08:15:39.572Z,1.30
2023-07-26T08:18:42.034Z,1.35
2023-07-26T08:21:45.048Z,1.40
2023-07-26T08:24:47.378Z,1.63
2023-07-26T08:27:50.126Z,1.70
2023-07-26T08:30:52.337Z,1.52
2023-07-26T08:33:55.268Z,1.70
2023-07-26T08:36:57.538Z,1.50
2023-07-26T08:39:59.830Z,1.50
2023-07-26T08:43:04.816Z,1.60
2023-07-26T08:46:08.667Z,1.58
2023-07-26T08:49:11.587Z,1.90
2023-07-26T08:52:17.049Z,1.80
2023-07-26T08:55:19.430Z,1.70
2023-07-26T08:58:21.631Z,2.03
2023-07-26T09:01:24.298Z,1.70
2023-07-26T09:04:26.804Z,1.67
2023-07-26T09:07:29.637Z,1.30
2023-07-26T09:10:33.020Z,1.97
2023-07-26T09:13:35.669Z,1.83
2023-07-26T09:16:37.890Z,1.70
2023-07-26T09:19:40.178Z,1.60
2023-07-26T09:22:42.512Z,1.87
2023-07-26T09:25:46.121Z,1.47
2023-07-26T09:28:54.936Z,2.03
2023-07-26T09:31:57.426Z,1.92
2023-07-26T09:35:01.502Z,1.80
2023-07-26T09:38:13.829Z,1.80
2023-07-26T09:41:25.687Z,1.87
2023-07-26T09:44:27.929Z,2.10
2023-07-26T09:50:44.789Z,2.05
2023-07-26T09:53:47.542Z,1.90
2023-07-26T09:56:50.108Z,2.00
2023-07-26T09:59:54.059Z,2.00
2023-07-26T10:03:06.309Z,1.75
2023-07-26T10:06:09.453Z,1.50
2023-07-26T10:09:17.324Z,1.90
2023-07-26T10:12:21.309Z,1.70
2023-07-26T10:15:23.811Z,1.60
2023-07-26T10:18:28.961Z,2.00
2023-07-26T10:21:31.912Z,1.70
2023-07-26T10:24:35.289Z,1.90
2023-07-26T10:27:38.156Z,1.90
2023-07-26T10:30:40.437Z,1.70
2023-07-26T10:33:46.360Z,1.70
2023-07-26T10:36:48.739Z,1.83
2023-07-26T10:39:51.516Z,1.90
2023-07-26T10:42:53.832Z,1.63
2023-07-26T10:45:56.081Z,2.10
2023-07-26T10:48:58.378Z,1.85
2023-07-26T10:52:03.650Z,1.90
2023-07-26T10:55:24.677Z,1.70
2023-07-26T10:58:26.907Z,1.67
2023-07-26T11:01:39.455Z,1.70
2023-07-26T11:04:44.692Z,1.70
2023-07-26T11:07:53.760Z,1.70
2023-07-26T11:10:55.961Z,1.80
2023-07-26T11:13:58.973Z,2.00
2023-07-26T11:17:13.071Z,2.00
2023-07-26T11:20:15.716Z,2.30
2023-07-26T11:23:18.754Z,2.20
2023-07-26T11:26:21.018Z,1.90
2023-07-26T11:29:23.243Z,2.53
2023-07-26T11:32:26.345Z,2.05
2023-07-26T11:35:39.218Z,2.35
2023-07-26T11:38:44.541Z,2.03
2023-07-26T11:41:46.862Z,2.40
2023-07-26T11:44:49.149Z,1.70
2023-07-26T11:47:51.661Z,2.05
2023-07-26T11:50:57.247Z,1.90
2023-07-26T11:53:59.764Z,1.70
2023-07-26T11:57:02.281Z,1.87
2023-07-26T12:00:06.791Z,1.70
2023-07-26T12:03:15.413Z,1.65
2023-07-26T12:06:18.011Z,1.90
2023-07-26T12:09:20.290Z,1.92
2023-07-26T12:12:22.722Z,1.70
2023-07-26T12:15:26.721Z,1.90
2023-07-26T12:18:29.320Z,1.60
2023-07-26T12:21:31.876Z,1.70
2023-07-26T12:24:50.944Z,1.50
2023-07-26T12:27:54.025Z,1.50
2023-07-26T12:30:58.405Z,1.60
2023-07-26T12:34:06.192Z,1.38
2023-07-26T12:37:10.045Z,1.30
2023-07-26T12:40:12.401Z,1.20
2023-07-26T12:43:30.830Z,1.10
2023-07-26T12:46:55.024Z,1.00
2023-07-26T12:49:56.840Z,1.00
2023-07-26T12:52:59.316Z,0.98
2023-07-26T12:56:01.574Z,0.80
2023-07-26T12:59:08.607Z,0.90
2023-07-26T13:02:11.725Z,0.80
2023-07-26T13:05:14.064Z,0.90
2023-07-26T13:08:16.310Z,0.70
2023-07-26T13:11:18.545Z,0.70
2023-07-26T13:14:21.397Z,0.60
2023-07-26T13:17:23.848Z,0.70
2023-07-26T13:20:26.213Z,0.60
2023-07-26T13:23:28.457Z,0.60
2023-07-26T13:26:30.953Z,0.70
2023-07-26T13:29:33.584Z,0.57
2023-07-26T13:32:36.550Z,0.40
2023-07-26T13:35:39.102Z,0.30
2023-07-26T13:38:41.425Z,0.50
2023-07-26T13:41:44.408Z,0.30
2023-07-26T13:44:46.807Z,0.30
2023-07-26T13:47:49.103Z,0.40
2023-07-26T13:50:52.108Z,0.30
2023-07-26T13:53:54.819Z,0.30
2023-07-26T13:56:57.066Z,0.30
2023-07-26T13:59:59.304Z,0.30
2023-07-26T14:03:01.676Z,0.30
2023-07-26T14:06:04.106Z,0.30
2023-07-26T14:09:06.422Z,0.38
2023-07-26T14:12:09.373Z,0.30
2023-07-26T14:15:11.715Z,0.23
2023-07-26T14:18:13.969Z,0.20
2023-07-26T14:21:16.239Z,0.20
2023-07-26T14:24:18.580Z,0.20
2023-07-26T14:27:20.815Z,0.30
2023-07-26T14:30:23.057Z,0.20
2023-07-26T14:33:25.287Z,0.20
2023-07-26T14:36:27.709Z,0.20
2023-07-26T14:39:30.637Z,0.20
2023-07-26T14:42:32.908Z,0.17
2023-07-26T14:45:35.944Z,0.20
2023-07-26T14:48:38.222Z,0.20
2023-07-26T14:51:40.448Z,0.20
2023-07-26T14:54:42.739Z,0.22
2023-07-26T14:57:46.309Z,0.20
2023-07-26T15:00:50.126Z,0.20
2023-07-26T15:03:53.995Z,0.20
2023-07-26T15:06:56.512Z,0.20
2023-07-26T15:09:59.505Z,0.20
2023-07-26T15:13:01.748Z,0.20
2023-07-26T15:16:04.064Z,0.20
2023-07-26T15:19:06.409Z,0.20
2023-07-26T15:22:09.120Z,0.28
2023-07-26T15:25:12.048Z,0.20
2023-07-26T15:28:14.416Z,0.28
2023-07-26T15:31:17.089Z,0.20
2023-07-26T15:34:19.658Z,0.20
2023-07-26T15:37:22.812Z,0.20
2023-07-26T15:40:26.110Z,0.30
2023-07-26T15:47:14.390Z,0.20
2023-07-26T15:50:15.310Z,0.30
2023-07-26T15:53:18.036Z,0.20
2023-07-26T15:56:20.537Z,0.30
2023-07-26T15:59:22.885Z,0.20
2023-07-26T16:02:25.479Z,0.20
2023-07-26T16:14:45.073Z,0.20
2023-07-26T16:23:58.859Z,0.20
2023-07-26T16:27:01.251Z,0.30
2023-07-26T16:30:07.722Z,0.10
2023-07-26T16:33:10.503Z,0.20
2023-07-26T16:36:13.293Z,0.20
2023-07-26T16:39:16.020Z,0.15
2023-07-26T16:42:18.662Z,0.50
2023-07-26T16:45:21.689Z,0.10
2023-07-26T16:48:25.688Z,0.20
2023-07-26T16:51:28.630Z,0.10
2023-07-26T16:54:31.154Z,0.25
2023-07-26T16:57:33.563Z,0.10
2023-07-26T17:00:36.374Z,0.20
2023-07-26T17:03:39.289Z,0.10
2023-07-26T17:06:43.225Z,0.10
2023-07-26T17:09:47.145Z,0.10
2023-07-26T17:12:50.314Z,0.10
2023-07-26T17:15:53.292Z,0.10
2023-07-26T17:18:57.124Z,0.20
2023-07-26T17:22:00.056Z,0.20
2023-07-26T17:25:02.910Z,0.10
2023-07-26T17:28:06.104Z,0.30
2023-07-26T17:31:09.295Z,0.15
2023-07-26T17:34:12.042Z,0.20
2023-07-26T17:37:14.843Z,0.13
2023-07-26T17:40:18.947Z,0.20
2023-07-26T17:43:21.257Z,0.20
2023-07-26T17:46:24.639Z,0.20
2023-07-26T17:49:28.748Z,0.20
2023-07-26T17:52:33.081Z,0.20
2023-07-26T17:55:36.114Z,0.30
2023-07-26T17:58:39.001Z,0.20
2023-07-26T18:01:42.057Z,0.20
2023-07-26T18:04:44.825Z,0.20
2023-07-26T18:07:49.110Z,0.30
2023-07-26T18:10:59.605Z,0.30
2023-07-26T18:14:02.679Z,0.30
2023-07-26T18:17:05.346Z,0.30
2023-07-26T18:20:08.933Z,0.20
2023-07-26T18:23:11.409Z,0.23
2023-07-26T18:26:16.584Z,0.32
2023-07-26T18:29:19.253Z,0.30
2023-07-26T18:32:22.225Z,0.30
2023-07-26T18:35:25.854Z,0.27
2023-07-26T18:38:29.290Z,0.20
2023-07-26T18:41:32.042Z,0.30
2023-07-26T18:44:35.085Z,0.30
2023-07-26T18:47:37.708Z,0.40
2023-07-26T18:50:40.738Z,0.37
2023-07-26T18:53:43.070Z,0.50
2023-07-26T18:56:45.837Z,0.30
2023-07-26T18:59:49.115Z,0.40
2023-07-26T19:02:52.171Z,0.30
2023-07-26T19:06:00.959Z,0.40
2023-07-26T19:09:04.846Z,0.30
2023-07-26T19:12:11.399Z,0.43
2023-07-26T19:15:16.058Z,0.40
2023-07-26T19:18:19.467Z,0.32
2023-07-26T19:21:22.344Z,0.43
2023-07-26T19:24:25.627Z,0.60
2023-07-26T19:27:30.284Z,0.50
2023-07-26T19:30:33.132Z,0.50
2023-07-26T19:33:36.268Z,0.40
2023-07-26T19:36:39.841Z,0.50
2023-07-26T19:39:43.240Z,0.50
2023-07-26T19:42:47.765Z,0.50
2023-07-26T19:45:51.858Z,0.40
2023-07-26T19:48:55.490Z,0.40
2023-07-26T19:51:59.196Z,0.60
2023-07-26T19:55:03.506Z,1.77
2023-07-26T19:58:07.125Z,1.10
2023-07-26T20:01:10.928Z,1.48
2023-07-26T20:04:14.486Z,1.17
2023-07-26T20:07:17.829Z,2.10
2023-07-26T20:10:21.952Z,1.07
2023-07-26T20:13:25.550Z,1.00
2023-07-26T20:16:28.999Z,0.70
2023-07-26T20:19:32.654Z,0.70
2023-07-26T20:22:36.779Z,0.90
2023-07-26T20:25:42.505Z,0.53
2023-07-26T20:28:45.541Z,0.40
2023-07-26T20:31:48.854Z,0.70
2023-07-26T20:34:52.727Z,0.50
2023-07-26T20:37:55.789Z,0.50
2023-07-26T20:40:58.476Z,0.50
2023-07-26T20:44:01.138Z,0.50
2023-07-26T20:47:03.745Z,0.57
2023-07-26T20:50:07.124Z,0.73
2023-07-26T20:53:09.836Z,0.50
2023-07-26T20:56:13.036Z,0.50
2023-07-26T20:59:15.681Z,0.75
2023-07-26T21:02:17.999Z,0.70
2023-07-26T21:05:21.385Z,0.50
2023-07-26T21:08:23.671Z,0.57
2023-07-26T21:11:28.366Z,0.60
2023-07-26T21:14:31.221Z,0.60
2023-07-26T21:17:34.262Z,0.68
2023-07-26T21:20:37.629Z,0.60
2023-07-26T21:23:40.788Z,0.80
2023-07-26T21:26:43.545Z,0.70
2023-07-26T21:29:45.811Z,0.80
2023-07-26T21:32:48.365Z,0.90
2023-07-26T21:35:56.570Z,0.60
2023-07-26T21:38:58.981Z,0.70
2023-07-26T21:42:01.171Z,0.80
2023-07-26T21:45:03.637Z,0.80
2023-07-26T21:48:07.410Z,0.90
2023-07-26T21:51:09.734Z,0.73
2023-07-26T21:54:11.982Z,0.80
2023-07-26T21:57:14.418Z,0.77
2023-07-26T22:00:17.792Z,0.82
2023-07-26T22:03:20.242Z,0.80
2023-07-26T22:06:22.542Z,0.85
2023-07-26T22:09:25.695Z,1.00
2023-07-26T22:12:28.012Z,1.10
2023-07-26T22:15:30.415Z,1.13
2023-07-26T22:18:33.517Z,1.00
2023-07-26T22:21:37.252Z,1.00
2023-07-26T22:24:39.543Z,1.10
2023-07-26T22:27:41.752Z,1.00
2023-07-26T22:30:43.966Z,1.20
2023-07-26T22:33:46.260Z,1.23
2023-07-26T22:36:48.671Z,1.00
2023-07-26T22:39:50.999Z,1.40
2023-07-26T22:42:53.264Z,1.17
2023-07-26T22:45:56.271Z,1.25
2023-07-26T22:49:01.898Z,1.40
2023-07-26T22:52:05.308Z,1.13
2023-07-26T22:55:08.804Z,1.43
2023-07-26T22:58:12.203Z,1.80
2023-07-26T23:01:15.944Z,1.58
2023-07-26T23:04:19.206Z,1.45
2023-07-26T23:07:22.301Z,1.40
2023-07-26T23:10:25.492Z,1.50
2023-07-26T23:13:29.619Z,1.37
2023-07-26T23:16:32.994Z,1.75
2023-07-26T23:19:36.309Z,1.50
2023-07-26T23:22:39.610Z,1.60
2023-07-26T23:25:42.704Z,1.30
2023-07-26T23:28:45.805Z,1.50
2023-07-26T23:31:49.099Z,1.67
2023-07-26T23:34:52.291Z,1.80
2023-07-26T23:37:56.004Z,1.55
2023-07-26T23:40:59.714Z,1.37
2023-07-26T23:44:02.601Z,1.70
2023-07-26T23:47:06.104Z,1.48
2023-07-26T23:50:09.602Z,1.30
2023-07-26T23:53:12.824Z,1.58
2023-07-26T23:56:16.103Z,1.60
2023-07-26T23:59:19.090Z,1.50
